createdAt,value
2016-06-25T00:00:58.890Z,0
2016-06-25T00:01:57.670Z,0
2016-06-25T00:02:58.305Z,0
2016-06-25T00:03:58.329Z,0
2016-06-25T00:04:57.776Z,0
2016-06-25T00:05:58.374Z,0
2016-06-25T00:08:12.100Z,0
2016-06-25T00:08:58.456Z,0
2016-06-25T00:09:57.862Z,0
2016-06-25T00:10:57.896Z,0
2016-06-25T00:11:57.914Z,0
2016-06-25T00:12:58.558Z,0
2016-06-25T00:13:58.618Z,0
2016-06-25T00:15:12.885Z,0
2016-06-25T00:15:59.274Z,0
2016-06-25T00:16:58.675Z,0
2016-06-25T00:17:58.101Z,0
2016-06-25T00:19:13.022Z,0
2016-06-25T00:20:13.039Z,0
2016-06-25T00:20:58.187Z,0
2016-06-25T00:21:58.816Z,0
2016-06-25T00:23:58.862Z,0
2016-06-25T00:25:57.711Z,0
2016-06-25T00:26:58.345Z,0
2016-06-25T00:27:58.367Z,0
2016-06-25T00:29:59.055Z,0
2016-06-25T00:31:59.741Z,0
2016-06-25T00:33:14.002Z,0
2016-06-25T00:33:59.142Z,0
2016-06-25T00:34:58.586Z,0
2016-06-25T00:35:59.198Z,0
2016-06-25T00:36:59.230Z,0
2016-06-25T00:37:58.659Z,0
2016-06-25T00:38:59.286Z,0
2016-06-25T00:39:59.318Z,0
2016-06-25T00:40:58.718Z,0
2016-06-25T00:41:58.776Z,0
2016-06-25T00:42:59.403Z,0
2016-06-25T00:44:00.026Z,0
2016-06-25T00:44:59.466Z,0
2016-06-25T00:45:58.876Z,0
2016-06-25T00:47:28.046Z,0
2016-06-25T00:47:59.519Z,0
2016-06-25T00:48:59.562Z,0
2016-06-25T00:50:14.465Z,0
2016-06-25T00:51:00.205Z,0
2016-06-25T00:52:00.253Z,0
2016-06-25T00:52:59.658Z,0
2016-06-25T00:53:59.722Z,0
2016-06-25T00:55:14.630Z,0
2016-06-25T00:55:59.768Z,0
2016-06-25T00:57:13.451Z,0
2016-06-25T00:58:00.421Z,0
2016-06-25T00:58:59.838Z,0
2016-06-25T01:00:00.492Z,0
2016-06-25T01:01:14.782Z,0
2016-06-25T01:01:59.919Z,0
2016-06-25T01:03:14.814Z,0
2016-06-25T01:03:59.966Z,0
2016-06-25T01:06:00.642Z,0
2016-06-25T01:07:00.667Z,0
2016-06-25T01:07:59.452Z,0
2016-06-25T01:09:00.111Z,0
2016-06-25T01:10:14.399Z,0
2016-06-25T01:11:00.154Z,0
2016-06-25T01:12:14.454Z,0
2016-06-25T01:12:59.586Z,0
2016-06-25T01:13:59.634Z,0
2016-06-25T01:15:00.263Z,0
2016-06-25T01:16:00.276Z,0
2016-06-25T01:17:00.919Z,0
2016-06-25T01:18:15.263Z,0
2016-06-25T01:19:59.166Z,0
2016-06-25T01:21:00.434Z,0
2016-06-25T01:21:59.829Z,0
2016-06-25T01:22:59.264Z,0
2016-06-25T01:24:14.802Z,0
2016-06-25T01:25:01.170Z,0
2016-06-25T01:25:59.363Z,0
2016-06-25T01:27:15.486Z,0
2016-06-25T01:28:01.234Z,0
2016-06-25T01:29:00.648Z,0
2016-06-25T01:30:00.074Z,0
2016-06-25T01:30:59.487Z,0
2016-06-25T01:32:00.128Z,0
2016-06-25T01:33:01.358Z,0
2016-06-25T01:34:01.392Z,0
2016-06-25T01:35:00.196Z,0
2016-06-25T01:36:00.846Z,0
2016-06-25T01:37:00.860Z,0
2016-06-25T01:38:15.154Z,0
2016-06-25T01:39:01.518Z,0
2016-06-25T01:40:15.223Z,0
2016-06-25T01:40:59.766Z,0
2016-06-25T01:42:01.006Z,0
2016-06-25T01:42:59.812Z,0
2016-06-25T01:44:01.052Z,0
2016-06-25T01:45:01.676Z,0
2016-06-25T01:46:01.087Z,0
2016-06-25T01:47:00.520Z,0
2016-06-25T01:48:00.547Z,0
2016-06-25T01:49:00.568Z,0
2016-06-25T01:50:15.478Z,0
2016-06-25T01:51:01.251Z,0
2016-06-25T01:52:01.878Z,4
2016-06-25T01:53:01.919Z,4
2016-06-25T01:54:01.929Z,4
2016-06-25T01:55:01.345Z,0
2016-06-25T01:56:01.363Z,0
2016-06-25T01:57:01.402Z,0
2016-06-25T01:58:01.433Z,4
2016-06-25T01:59:00.877Z,4
2016-06-25T02:00:01.497Z,4
2016-06-25T02:01:00.922Z,4
2016-06-25T02:02:15.193Z,4
2016-06-25T02:03:02.258Z,4
2016-06-25T02:04:01.601Z,4
2016-06-25T02:05:15.894Z,8
2016-06-25T02:06:16.533Z,8
2016-06-25T02:08:01.110Z,12
2016-06-25T02:09:01.118Z,12
2016-06-25T02:10:01.753Z,12
2016-06-25T02:11:16.053Z,12
2016-06-25T02:12:01.825Z,12
2016-06-25T02:13:15.499Z,16
2016-06-25T02:15:02.503Z,20
2016-06-25T02:16:01.309Z,24
2016-06-25T02:19:02.600Z,32
2016-06-25T02:20:00.813Z,36
2016-06-25T02:21:02.655Z,36
2016-06-25T02:22:16.353Z,40
2016-06-25T02:23:15.772Z,48
2016-06-25T02:24:17.027Z,52
2016-06-25T02:25:02.162Z,60
2016-06-25T02:26:01.587Z,60
2016-06-25T02:27:02.228Z,68
2016-06-25T02:28:17.119Z,76
2016-06-25T02:29:02.878Z,80
2016-06-25T02:30:02.294Z,88
2016-06-25T02:32:02.352Z,104
2016-06-25T02:33:17.272Z,116
2016-06-25T02:34:02.406Z,124
2016-06-25T02:35:01.862Z,136
2016-06-25T02:36:03.069Z,144
2016-06-25T02:37:03.110Z,156
2016-06-25T02:38:16.178Z,172
2016-06-25T02:39:17.414Z,184
2016-06-25T02:40:02.570Z,192
2016-06-25T02:41:17.467Z,212
2016-06-25T02:42:02.635Z,224
2016-06-25T02:43:02.651Z,236
2016-06-25T02:44:02.669Z,252
2016-06-25T02:45:02.127Z,268
2016-06-25T02:46:02.746Z,288
2016-06-25T02:47:02.742Z,304
2016-06-25T02:49:03.416Z,344
2016-06-25T02:50:02.832Z,364
2016-06-25T02:52:02.887Z,408
2016-06-25T02:54:03.539Z,456
2016-06-25T02:55:02.369Z,480
2016-06-25T02:56:17.876Z,512
2016-06-25T02:57:03.037Z,536
2016-06-25T02:58:03.674Z,564
2016-06-25T02:59:03.080Z,592
2016-06-25T03:00:03.712Z,628
2016-06-25T03:01:17.391Z,668
2016-06-25T03:02:03.781Z,692
2016-06-25T03:03:02.582Z,728
2016-06-25T03:04:03.836Z,764
2016-06-25T03:05:03.226Z,804
2016-06-25T03:06:02.038Z,844
2016-06-25T03:07:03.893Z,884
2016-06-25T03:08:02.097Z,928
2016-06-25T03:09:17.618Z,980
2016-06-25T03:10:03.383Z,1012
2016-06-25T03:11:18.272Z,1076
2016-06-25T03:12:04.033Z,1112
2016-06-25T03:13:03.448Z,1160
2016-06-25T03:14:04.101Z,1212
2016-06-25T03:15:03.486Z,1264
2016-06-25T03:16:03.531Z,1320
2016-06-25T03:17:17.818Z,1392
2016-06-25T03:18:03.884Z,1440
2016-06-25T03:19:03.602Z,1500
2016-06-25T03:20:03.962Z,1556
2016-06-25T03:21:04.480Z,1620
2016-06-25T03:22:04.304Z,1680
2016-06-25T03:23:03.110Z,1744
2016-06-25T03:25:18.031Z,1872
2016-06-25T03:26:03.217Z,1916
2016-06-25T03:27:17.506Z,1988
2016-06-25T03:28:04.463Z,2036
2016-06-25T03:29:04.506Z,2096
2016-06-25T03:30:18.801Z,2172
2016-06-25T03:31:04.541Z,2224
2016-06-25T03:32:03.347Z,2284
2016-06-25T03:33:04.007Z,2352
2016-06-25T03:34:04.632Z,2424
2016-06-25T03:35:18.327Z,2504
2016-06-25T03:36:04.666Z,2556
2016-06-25T03:37:04.735Z,2624
2016-06-25T03:38:04.724Z,2692
2016-06-25T03:39:04.199Z,2776
2016-06-25T03:40:04.813Z,2852
2016-06-25T03:41:18.481Z,2960
2016-06-25T03:42:04.831Z,3004
2016-06-25T03:43:19.132Z,3152
2016-06-25T03:44:04.284Z,3220
2016-06-25T03:45:03.693Z,3288
2016-06-25T03:46:04.331Z,3420
2016-06-25T03:47:03.150Z,3380
2016-06-25T03:48:04.403Z,3444
2016-06-25T03:49:04.406Z,3500
2016-06-25T03:50:04.450Z,3556
2016-06-25T03:51:04.455Z,3628
2016-06-25T03:52:05.105Z,3716
2016-06-25T03:53:04.517Z,3800
2016-06-25T03:54:05.161Z,3892
2016-06-25T03:55:04.578Z,4012
2016-06-25T03:56:03.392Z,4056
2016-06-25T03:57:18.900Z,4528
2016-06-25T03:58:19.538Z,5376
2016-06-25T03:59:05.287Z,6524
2016-06-25T04:00:04.735Z,5844
2016-06-25T04:01:04.756Z,5316
2016-06-25T04:02:03.551Z,5488
2016-06-25T04:03:19.070Z,5100
2016-06-25T04:04:04.826Z,4996
2016-06-25T04:05:04.830Z,4964
2016-06-25T04:06:04.261Z,4956
2016-06-25T04:07:05.546Z,5000
2016-06-25T04:08:04.921Z,5116
2016-06-25T04:09:04.342Z,5608
2016-06-25T04:10:04.404Z,9584
2016-06-25T04:11:04.403Z,15104
2016-06-25T04:12:05.034Z,26304
2016-06-25T04:13:19.331Z,34912
2016-06-25T04:14:05.090Z,34624
2016-06-25T04:15:04.517Z,35104
2016-06-25T04:16:05.223Z,36000
2016-06-25T04:17:20.063Z,36736
2016-06-25T04:18:05.221Z,39712
2016-06-25T04:19:04.640Z,39968
2016-06-25T04:20:05.255Z,41408
2016-06-25T04:21:05.278Z,42048
2016-06-25T04:22:05.319Z,41504
2016-06-25T04:23:05.328Z,41280
2016-06-25T04:24:04.151Z,41152
2016-06-25T04:25:05.421Z,42496
2016-06-25T04:26:19.737Z,42176
2016-06-25T04:27:04.855Z,42720
2016-06-25T04:28:19.156Z,43424
2016-06-25T04:30:05.567Z,43872
2016-06-25T04:31:06.220Z,44064
2016-06-25T04:32:05.609Z,46048
2016-06-25T04:33:04.435Z,47584
2016-06-25T04:34:06.285Z,47520
2016-06-25T04:35:06.325Z,46912
2016-06-25T04:36:05.735Z,48256
2016-06-25T04:37:05.154Z,50432
2016-06-25T04:38:06.406Z,50336
2016-06-25T04:40:05.258Z,50720
2016-06-25T04:41:05.906Z,50528
2016-06-25T04:42:06.567Z,52672
2016-06-25T04:43:06.003Z,52960
2016-06-25T04:44:05.391Z,52384
2016-06-25T04:45:20.905Z,52448
2016-06-25T04:46:20.937Z,55264
2016-06-25T04:47:05.524Z,56544
2016-06-25T04:48:06.100Z,57152
2016-06-25T04:49:06.155Z,55168
2016-06-25T04:50:06.829Z,54496
2016-06-25T04:51:05.605Z,56768
2016-06-25T04:52:05.645Z,60064
2016-06-25T04:53:05.058Z,58976
2016-06-25T04:54:05.683Z,59424
2016-06-25T04:55:06.952Z,58880
2016-06-25T04:57:05.181Z,61952
2016-06-25T04:58:05.870Z,62144
2016-06-25T04:59:20.774Z,61760
2016-06-25T05:00:20.783Z,63040
2016-06-25T05:01:06.578Z,64416
2016-06-25T05:02:21.458Z,66240
2016-06-25T05:03:06.614Z,64640
2016-06-25T05:04:20.917Z,61216
2016-06-25T05:05:20.947Z,60544
2016-06-25T05:06:06.141Z,59040
2016-06-25T05:07:06.139Z,61824
2016-06-25T05:08:06.790Z,64032
2016-06-25T05:09:06.832Z,66912
2016-06-25T05:11:06.289Z,71392
2016-06-25T05:12:06.920Z,71232
2016-06-25T05:13:07.569Z,71264
2016-06-25T05:14:21.253Z,71808
2016-06-25T05:15:06.442Z,69696
2016-06-25T05:16:20.726Z,68896
2016-06-25T05:17:06.486Z,69888
2016-06-25T05:18:05.956Z,71040
2016-06-25T05:19:07.166Z,70048
2016-06-25T05:20:07.218Z,68672
2016-06-25T05:21:07.222Z,74592
2016-06-25T05:22:06.665Z,75072
2016-06-25T05:23:06.710Z,73120
2016-06-25T05:24:07.348Z,70752
2016-06-25T05:25:06.190Z,70688
2016-06-25T05:26:06.194Z,72576
2016-06-25T05:27:07.470Z,74016
2016-06-25T05:28:06.865Z,73984
2016-06-25T05:29:08.144Z,71552
2016-06-25T05:30:07.582Z,72896
2016-06-25T05:31:07.000Z,74272
2016-06-25T05:32:21.909Z,71424
2016-06-25T05:33:22.546Z,72256
2016-06-25T05:34:07.720Z,75616
2016-06-25T05:35:07.135Z,75904
2016-06-25T05:36:08.406Z,74848
2016-06-25T05:37:22.694Z,76160
2016-06-25T05:38:06.660Z,78848
2016-06-25T05:39:08.505Z,78720
2016-06-25T05:40:07.923Z,73760
2016-06-25T05:42:08.610Z,69952
2016-06-25T05:43:22.298Z,73472
2016-06-25T05:44:07.443Z,73536
2016-06-25T05:45:06.889Z,74336
2016-06-25T05:46:07.524Z,76288
2016-06-25T05:47:08.183Z,76448
2016-06-25T05:48:22.495Z,73952
2016-06-25T05:49:08.284Z,75232
2016-06-25T05:50:08.300Z,76960
2016-06-25T05:51:08.347Z,77056
2016-06-25T05:52:23.265Z,77856
2016-06-25T05:53:08.406Z,77568
2016-06-25T05:55:23.353Z,74208
2016-06-25T05:56:08.518Z,76128
2016-06-25T05:57:08.552Z,76480
2016-06-25T05:58:07.973Z,77088
2016-06-25T05:59:09.244Z,75520
2016-06-25T06:00:08.063Z,73824
2016-06-25T06:01:08.755Z,74176
2016-06-25T06:02:09.370Z,76416
2016-06-25T06:03:23.659Z,78912
2016-06-25T06:04:08.202Z,78336
2016-06-25T06:05:08.253Z,74880
2016-06-25T06:06:07.664Z,73920
2016-06-25T06:07:23.223Z,76320
2016-06-25T06:08:23.251Z,75968
2016-06-25T06:09:08.408Z,73920
2016-06-25T06:10:23.330Z,71136
2016-06-25T06:11:08.489Z,72320
2016-06-25T06:13:09.173Z,71776
2016-06-25T06:14:09.213Z,71200
2016-06-25T06:15:23.517Z,72736
2016-06-25T06:17:09.937Z,72992
2016-06-25T06:18:09.362Z,74496
2016-06-25T06:19:09.380Z,75424
2016-06-25T06:21:09.455Z,73152
2016-06-25T06:22:09.544Z,72960
2016-06-25T06:23:08.946Z,70176
2016-06-25T06:24:10.191Z,69024
2016-06-25T06:25:09.640Z,70912
2016-06-25T06:26:10.275Z,74400
2016-06-25T06:27:23.965Z,75584
2016-06-25T06:29:10.381Z,72448
2016-06-25T06:30:09.814Z,72640
2016-06-25T06:31:09.238Z,74752
2016-06-25T06:33:09.326Z,74432
2016-06-25T06:34:09.364Z,72480
2016-06-25T06:36:10.652Z,63616
2016-06-25T06:37:10.686Z,67744
2016-06-25T06:38:23.795Z,72544
2016-06-25T06:39:09.551Z,72896
2016-06-25T06:41:09.665Z,71648
2016-06-25T06:42:09.648Z,70400
2016-06-25T06:43:10.941Z,69280
2016-06-25T06:44:24.007Z,70656
2016-06-25T06:45:10.981Z,72000
2016-06-25T06:46:11.033Z,71968
2016-06-25T06:47:09.243Z,69888
2016-06-25T06:49:10.541Z,62688
2016-06-25T06:50:09.963Z,66688
2016-06-25T06:52:10.086Z,65952
2016-06-25T06:53:10.709Z,65216
2016-06-25T06:54:10.742Z,63552
2016-06-25T06:55:11.369Z,62848
2016-06-25T06:56:09.591Z,64832
2016-06-25T06:57:11.474Z,63328
2016-06-25T06:58:10.333Z,62304
2016-06-25T06:59:09.707Z,63936
2016-06-25T07:00:10.974Z,62560
2016-06-25T07:01:25.883Z,61376
2016-06-25T07:02:11.063Z,62560
2016-06-25T07:03:11.686Z,63776
2016-06-25T07:04:10.521Z,63456
2016-06-25T07:05:25.443Z,63488
2016-06-25T07:06:24.877Z,62784
2016-06-25T07:07:40.408Z,63168
2016-06-25T07:08:11.289Z,64000
2016-06-25T07:09:10.701Z,64416
2016-06-25T07:11:11.401Z,59648
2016-06-25T07:12:25.706Z,62336
2016-06-25T07:13:25.127Z,62560
2016-06-25T07:14:11.509Z,61248
2016-06-25T07:15:10.946Z,63136
2016-06-25T07:16:25.280Z,64800
2016-06-25T07:17:11.626Z,62912
2016-06-25T07:18:10.443Z,62528
2016-06-25T07:19:11.084Z,62048
2016-06-25T07:20:12.336Z,58976
2016-06-25T07:21:11.798Z,59168
2016-06-25T07:22:10.600Z,58816
2016-06-25T07:23:26.743Z,54176
2016-06-25T07:24:11.911Z,52704
2016-06-25T07:25:25.649Z,48992
2016-06-25T07:26:12.592Z,53728
2016-06-25T07:27:26.278Z,50048
2016-06-25T07:28:10.842Z,59296
2016-06-25T07:29:12.097Z,62592
2016-06-25T07:30:12.131Z,60640
2016-06-25T07:31:12.167Z,60288
2016-06-25T07:32:25.865Z,60928
2016-06-25T07:33:11.648Z,59776
2016-06-25T07:34:11.684Z,59104
2016-06-25T07:35:12.332Z,55072
2016-06-25T07:36:11.750Z,62304
2016-06-25T07:37:12.995Z,62336
2016-06-25T07:38:26.102Z,60096
2016-06-25T07:39:11.260Z,58912
2016-06-25T07:40:11.894Z,53440
2016-06-25T07:41:27.435Z,58592
2016-06-25T07:42:11.971Z,61824
2016-06-25T07:43:11.409Z,58560
2016-06-25T07:44:13.286Z,59136
2016-06-25T07:45:12.091Z,61056
2016-06-25T07:46:12.133Z,58048
2016-06-25T07:48:13.417Z,57728
2016-06-25T07:49:12.847Z,56992
2016-06-25T07:50:11.661Z,55744
2016-06-25T07:51:12.320Z,60864
2016-06-25T07:52:13.574Z,59936
2016-06-25T07:53:11.801Z,52864
2016-06-25T07:54:12.437Z,54688
2016-06-25T07:55:13.081Z,55968
2016-06-25T07:56:13.114Z,55328
2016-06-25T07:57:12.547Z,55840
2016-06-25T07:58:13.203Z,55776
2016-06-25T07:59:12.627Z,53696
2016-06-25T08:00:12.689Z,54048
2016-06-25T08:01:26.982Z,55136
2016-06-25T08:02:13.359Z,55328
2016-06-25T08:03:13.405Z,52512
2016-06-25T08:04:14.063Z,47232
2016-06-25T08:05:14.087Z,34848
2016-06-25T08:06:12.907Z,24416
2016-06-25T08:07:13.570Z,22880
2016-06-25T08:08:12.356Z,22528
2016-06-25T08:09:14.245Z,22368
2016-06-25T08:10:27.941Z,22208
2016-06-25T08:11:13.097Z,22176
2016-06-25T08:12:28.635Z,22080
2016-06-25T08:13:12.583Z,22016
2016-06-25T08:14:13.815Z,21952
2016-06-25T08:15:13.279Z,21888
2016-06-25T08:16:13.892Z,21824
2016-06-25T08:17:14.557Z,21760
2016-06-25T08:18:28.241Z,21632
2016-06-25T08:19:14.625Z,21600
2016-06-25T08:20:14.090Z,21376
2016-06-25T08:21:14.102Z,21312
2016-06-25T08:22:12.939Z,21280
2016-06-25T08:23:14.811Z,21248
2016-06-25T08:24:14.926Z,21280
2016-06-25T08:25:14.308Z,21216
2016-06-25T08:26:29.251Z,21152
2016-06-25T08:27:13.730Z,21056
2016-06-25T08:28:15.097Z,20992
2016-06-25T08:29:29.279Z,20928
2016-06-25T08:30:14.447Z,20864
2016-06-25T08:31:14.468Z,20736
2016-06-25T08:32:28.783Z,20672
2016-06-25T08:33:14.551Z,20608
2016-06-25T08:34:15.205Z,20576
2016-06-25T08:37:14.713Z,20512
2016-06-25T08:38:14.134Z,20480
2016-06-25T08:39:29.073Z,20416
2016-06-25T08:40:14.821Z,20352
2016-06-25T08:41:14.246Z,20288
2016-06-25T08:42:29.168Z,20224
2016-06-25T08:43:14.323Z,20224
2016-06-25T08:44:29.261Z,20160
2016-06-25T08:45:14.995Z,20128
2016-06-25T08:46:14.449Z,20128
2016-06-25T08:47:15.725Z,20096
2016-06-25T08:48:15.167Z,20064
2016-06-25T08:49:15.765Z,20096
2016-06-25T08:50:15.197Z,20000
2016-06-25T08:51:14.626Z,19808
2016-06-25T08:52:29.544Z,19712
2016-06-25T08:53:14.701Z,19584
2016-06-25T08:54:14.755Z,19424
2016-06-25T08:55:15.396Z,19360
2016-06-25T08:56:14.210Z,19264
2016-06-25T08:57:15.481Z,19232
2016-06-25T08:58:29.156Z,19072
2016-06-25T08:59:14.944Z,19008
2016-06-25T09:00:15.584Z,18912
2016-06-25T09:01:29.889Z,18784
2016-06-25T09:02:15.653Z,18720
2016-06-25T09:03:15.088Z,18656
2016-06-25T09:04:29.992Z,18624
2016-06-25T09:05:16.386Z,18592
2016-06-25T09:06:15.822Z,18560
2016-06-25T09:07:16.458Z,18464
2016-06-25T09:08:15.883Z,18400
2016-06-25T09:09:30.817Z,18304
2016-06-25T09:10:15.380Z,18176
2016-06-25T09:11:30.261Z,18144
2016-06-25T09:12:15.415Z,18112
2016-06-25T09:13:29.715Z,18112
2016-06-25T09:14:15.491Z,18144
2016-06-25T09:15:16.753Z,18016
2016-06-25T09:17:16.825Z,17508
2016-06-25T09:18:16.865Z,17448
2016-06-25T09:19:15.705Z,17384
2016-06-25T09:20:16.327Z,17392
2016-06-25T09:21:15.764Z,17360
2016-06-25T09:22:31.286Z,17264
2016-06-25T09:24:15.884Z,17056
2016-06-25T09:25:15.909Z,17048
2016-06-25T09:26:15.930Z,16808
2016-06-25T09:27:15.994Z,16788
2016-06-25T09:28:16.616Z,16572
2016-06-25T09:29:16.662Z,16764
2016-06-25T09:30:16.081Z,16776
2016-06-25T09:31:16.110Z,16648
2016-06-25T09:32:16.806Z,16520
2016-06-25T09:33:16.817Z,16504
2016-06-25T09:34:17.459Z,16412
2016-06-25T09:35:16.315Z,16272
2016-06-25T09:36:17.532Z,16200
2016-06-25T09:37:16.366Z,16128
2016-06-25T09:38:16.386Z,16008
2016-06-25T09:39:17.049Z,15944
2016-06-25T09:40:17.672Z,15832
2016-06-25T09:41:17.111Z,15808
2016-06-25T09:42:16.530Z,15752
2016-06-25T09:43:15.954Z,15664
2016-06-25T09:44:17.822Z,15652
2016-06-25T09:45:30.907Z,15672
2016-06-25T09:46:31.548Z,15532
2016-06-25T09:47:17.312Z,15480
2016-06-25T09:48:16.759Z,15508
2016-06-25T09:49:17.998Z,15472
2016-06-25T09:50:17.429Z,15244
2016-06-25T09:51:16.851Z,15156
2016-06-25T09:52:16.908Z,15212
2016-06-25T09:53:16.935Z,15060
2016-06-25T09:54:17.585Z,15128
2016-06-25T09:55:16.996Z,15036
2016-06-25T09:56:31.922Z,14944
2016-06-25T09:57:16.479Z,14948
2016-06-25T09:58:31.990Z,15024
2016-06-25T09:59:17.758Z,14964
2016-06-25T10:00:18.403Z,14724
2016-06-25T10:01:32.090Z,14568
2016-06-25T10:02:16.636Z,14652
2016-06-25T10:03:18.495Z,14768
2016-06-25T10:04:18.554Z,14864
2016-06-25T10:05:17.963Z,14624
2016-06-25T10:06:18.662Z,14404
2016-06-25T10:07:18.668Z,14556
2016-06-25T10:08:18.151Z,14288
2016-06-25T10:09:17.518Z,14276
2016-06-25T10:10:18.166Z,13516
2016-06-25T10:11:31.837Z,14064
2016-06-25T10:12:18.216Z,14324
2016-06-25T10:13:17.650Z,14116
2016-06-25T10:14:17.687Z,14092
2016-06-25T10:15:18.941Z,14160
2016-06-25T10:16:19.021Z,9564
2016-06-25T10:17:32.671Z,9508
2016-06-25T10:18:18.432Z,9852
2016-06-25T10:19:17.261Z,14772
2016-06-25T10:20:18.512Z,15292
2016-06-25T10:21:17.951Z,15360
2016-06-25T10:22:17.974Z,14932
2016-06-25T10:23:18.640Z,14524
2016-06-25T10:24:18.655Z,12732
2016-06-25T10:25:18.711Z,14492
2016-06-25T10:26:18.751Z,14172
2016-06-25T10:27:18.754Z,14152
2016-06-25T10:28:17.590Z,14140
2016-06-25T10:29:19.527Z,14152
2016-06-25T10:30:33.141Z,13792
2016-06-25T10:31:19.521Z,13664
2016-06-25T10:32:32.602Z,14236
2016-06-25T10:33:33.248Z,14760
2016-06-25T10:34:19.027Z,14980
2016-06-25T10:35:19.048Z,15100
2016-06-25T10:36:19.711Z,15016
2016-06-25T10:37:18.559Z,14432
2016-06-25T10:38:18.549Z,14276
2016-06-25T10:39:19.210Z,14380
2016-06-25T10:40:18.618Z,14088
2016-06-25T10:41:18.667Z,14080
2016-06-25T10:42:19.306Z,13692
2016-06-25T10:43:19.335Z,13776
2016-06-25T10:44:19.372Z,13776
2016-06-25T10:45:34.291Z,13576
2016-06-25T10:46:18.367Z,13628
2016-06-25T10:47:33.749Z,13820
2016-06-25T10:48:33.778Z,13828
2016-06-25T10:49:18.926Z,13336
2016-06-25T10:50:18.995Z,10516
2016-06-25T10:51:19.011Z,12788
2016-06-25T10:52:19.049Z,12552
2016-06-25T10:53:19.698Z,13080
2016-06-25T10:54:19.723Z,13976
2016-06-25T10:55:19.174Z,13956
2016-06-25T10:56:19.804Z,13708
2016-06-25T10:57:20.423Z,13352
2016-06-25T10:58:19.877Z,12472
2016-06-25T10:59:19.938Z,13204
2016-06-25T11:00:19.336Z,13572
2016-06-25T11:01:20.579Z,12616
2016-06-25T11:02:34.885Z,8892
2016-06-25T11:03:20.048Z,8860
2016-06-25T11:04:20.702Z,9488
2016-06-25T11:05:19.506Z,13748
2016-06-25T11:06:18.931Z,13592
2016-06-25T11:07:19.590Z,13660
2016-06-25T11:08:20.203Z,13304
2016-06-25T11:09:35.151Z,13096
2016-06-25T11:11:19.701Z,13748
2016-06-25T11:13:21.023Z,9584
2016-06-25T11:14:19.254Z,9292
2016-06-25T11:15:19.254Z,8324
2016-06-25T11:16:19.925Z,8256
2016-06-25T11:17:20.583Z,8088
2016-06-25T11:18:20.589Z,7764
2016-06-25T11:19:20.610Z,11820
2016-06-25T11:20:35.520Z,7184
2016-06-25T11:21:34.943Z,6728
2016-06-25T11:22:35.588Z,6460
2016-06-25T11:23:20.756Z,6520
2016-06-25T11:25:20.823Z,8072
2016-06-25T11:26:20.861Z,6720
2016-06-25T11:28:20.918Z,9072
2016-06-25T11:29:35.237Z,6052
2016-06-25T11:30:21.593Z,5560
2016-06-25T11:31:21.026Z,4960
2016-06-25T11:32:20.451Z,4492
2016-06-25T11:33:35.363Z,4148
2016-06-25T11:34:20.558Z,3984
2016-06-25T11:35:20.561Z,3792
2016-06-25T11:37:20.619Z,3536
2016-06-25T11:38:21.871Z,3392
2016-06-25T11:39:20.726Z,3244
2016-06-25T11:40:20.139Z,2948
2016-06-25T11:41:20.762Z,2620
2016-06-25T11:42:20.784Z,2280
2016-06-25T11:43:21.430Z,2000
2016-06-25T11:44:21.470Z,1872
2016-06-25T11:45:21.496Z,1944
2016-06-25T11:46:21.554Z,2060
2016-06-25T11:47:36.432Z,1976
2016-06-25T11:48:35.862Z,1956
2016-06-25T11:49:21.634Z,2140
2016-06-25T11:50:21.670Z,2476
2016-06-25T11:51:36.596Z,2264
2016-06-25T11:52:35.414Z,2492
2016-06-25T11:53:21.166Z,2740
2016-06-25T11:54:21.187Z,3240
2016-06-25T11:55:21.855Z,3684
2016-06-25T11:56:20.653Z,3848
2016-06-25T11:57:21.921Z,4032
2016-06-25T11:58:21.934Z,4300
2016-06-25T12:00:21.990Z,5856
2016-06-25T12:01:36.291Z,7300
2016-06-25T12:02:21.451Z,8048
2016-06-25T12:03:22.702Z,9348
2016-06-25T12:04:37.011Z,10144
2016-06-25T12:05:22.745Z,10360
2016-06-25T12:06:22.868Z,10452
2016-06-25T12:07:22.232Z,10500
2016-06-25T12:08:35.897Z,10384
2016-06-25T12:09:21.675Z,10236
2016-06-25T12:10:21.750Z,10216
2016-06-25T12:11:22.953Z,10296
2016-06-25T12:12:36.008Z,10308
2016-06-25T12:13:22.381Z,10140
2016-06-25T12:14:37.294Z,10016
2016-06-25T12:15:22.445Z,9848
2016-06-25T12:16:23.104Z,9824
2016-06-25T12:17:21.911Z,9760
2016-06-25T12:18:22.538Z,9668
2016-06-25T12:19:22.619Z,9272
2016-06-25T12:20:22.003Z,9360
2016-06-25T12:21:22.676Z,9884
2016-06-25T12:22:21.469Z,9168
2016-06-25T12:23:36.370Z,8464
2016-06-25T12:24:22.822Z,9164
2016-06-25T12:25:23.377Z,8568
2016-06-25T12:26:22.796Z,8188
2016-06-25T12:27:22.831Z,9052
2016-06-25T12:28:22.266Z,8652
2016-06-25T12:29:23.547Z,8888
2016-06-25T12:30:22.313Z,7172
2016-06-25T12:31:22.970Z,9080
2016-06-25T12:32:22.999Z,9116
2016-06-25T12:33:23.665Z,8500
2016-06-25T12:34:23.074Z,7352
2016-06-25T12:35:22.518Z,7828
2016-06-25T12:36:22.543Z,8184
2016-06-25T12:37:21.942Z,9188
2016-06-25T12:38:22.579Z,8780
2016-06-25T12:39:23.836Z,8232
2016-06-25T12:40:23.239Z,9112
2016-06-25T12:41:22.061Z,8904
2016-06-25T12:42:22.710Z,9524
2016-06-25T12:43:23.963Z,8876
2016-06-25T12:44:22.775Z,8944
2016-06-25T12:46:22.231Z,8708
2016-06-25T12:47:23.468Z,8240
2016-06-25T12:48:23.571Z,8484
2016-06-25T12:49:37.207Z,9652
2016-06-25T12:50:24.179Z,8284
2016-06-25T12:51:24.238Z,8168
2016-06-25T12:52:23.035Z,8548
2016-06-25T12:54:23.709Z,9196
2016-06-25T12:55:38.609Z,8124
2016-06-25T12:56:24.375Z,8800
2016-06-25T12:57:22.586Z,8872
2016-06-25T12:58:23.236Z,8316
2016-06-25T12:59:24.486Z,5780
2016-06-25T13:00:23.889Z,6128
2016-06-25T13:01:22.722Z,5304
2016-06-25T13:03:37.658Z,6004
2016-06-25T13:04:23.498Z,5928
2016-06-25T13:05:23.451Z,6184
2016-06-25T13:06:23.482Z,6340
2016-06-25T13:07:24.781Z,9500
2016-06-25T13:08:24.782Z,9940
2016-06-25T13:09:24.202Z,10200
2016-06-25T13:10:24.235Z,9384
2016-06-25T13:11:37.914Z,9908
2016-06-25T13:12:24.901Z,9992
2016-06-25T13:13:24.378Z,11328
2016-06-25T13:14:24.353Z,10472
2016-06-25T13:15:23.787Z,10360
2016-06-25T13:16:24.413Z,11348
2016-06-25T13:17:23.244Z,9676
2016-06-25T13:18:25.095Z,10196
2016-06-25T13:19:38.773Z,7476
2016-06-25T13:20:23.947Z,10664
2016-06-25T13:21:24.607Z,10684
2016-06-25T13:22:39.502Z,11800
2016-06-25T13:23:38.906Z,10772
2016-06-25T13:24:24.668Z,10140
2016-06-25T13:25:24.745Z,10860
2016-06-25T13:26:38.421Z,9428
2016-06-25T13:27:39.035Z,9988
2016-06-25T13:28:24.830Z,9612
2016-06-25T13:29:25.465Z,6356
2016-06-25T13:30:24.273Z,8552
2016-06-25T13:31:24.290Z,9192
2016-06-25T13:32:24.951Z,9880
2016-06-25T13:33:25.609Z,9644
2016-06-25T13:34:25.011Z,10096
2016-06-25T13:35:25.639Z,8580
2016-06-25T13:36:25.696Z,9444
2016-06-25T13:37:25.116Z,10388
2016-06-25T13:38:25.135Z,9732
2016-06-25T13:39:24.569Z,10616
2016-06-25T13:40:25.903Z,10448
2016-06-25T13:41:40.293Z,10488
2016-06-25T13:42:25.261Z,11520
2016-06-25T13:43:38.949Z,11468
2016-06-25T13:45:24.753Z,10488
2016-06-25T13:46:26.011Z,10592
2016-06-25T13:47:24.815Z,10364
2016-06-25T13:48:25.473Z,10604
2016-06-25T13:49:26.098Z,10056
2016-06-25T13:50:25.532Z,10472
2016-06-25T13:51:25.547Z,10328
2016-06-25T13:52:25.013Z,10464
2016-06-25T13:53:25.634Z,9800
2016-06-25T13:54:25.074Z,10036
2016-06-25T13:55:25.689Z,10360
2016-06-25T13:56:25.727Z,10040
2016-06-25T13:57:25.745Z,9952
2016-06-25T13:58:39.439Z,10356
2016-06-25T13:59:25.214Z,9984
2016-06-25T14:00:25.863Z,9876
2016-06-25T14:01:25.283Z,10052
2016-06-25T14:02:26.522Z,7504
2016-06-25T14:03:26.596Z,7864
2016-06-25T14:04:25.395Z,9992
2016-06-25T14:05:26.117Z,7996
2016-06-25T14:06:26.051Z,10196